aviador You're here:

UMMS Decoded Metar

MINSK 2 in BELARUS
Report Time2017-09-24 06:30:00
UTC Time2017-09-24 06:51:55
Flight Rules vfr VFR
Wind090° at 8 kt
W.Decomp.*RWY 13: 5.4 kt HW 5.9 kt LCW
W.Rank090° ranks 35
Current wind is above 090° avg. (6.7)
Visibility9999 m
Phenomena:N/A
Clouds:N/A
Expected CloudBase > 1,200 ft AGL from Temp-Dew spread
CeilingNone
Temp11°C (ISA -3)
Dew Point08°C (82% RH)
AAT7.7°C
QNH1028 hPa
Density Alt-3 ft
Elevation673 ft
Report Wrong Elevation
Raw Report
METAR UMMS 240630Z 09004MPS CAVOK 11/08 Q1028 R13/D NOSIG=

Extra information for UMMS:More info

Metar Taf Metar & Taf Last 4 Metars F.Rules Stats Wind Profile Meteogram Temp Stats Airport Information Weather charts Add Link Nearby VenuesMetar ALERT Operation Metar Decoded Social comments